createdAt,value
2018-08-04T00:01:23.005Z,6.62
2018-08-04T00:03:51.516Z,7.00
2018-08-04T00:06:20.063Z,6.80
2018-08-04T00:08:48.616Z,6.75
2018-08-04T00:11:17.168Z,6.22
2018-08-04T00:13:45.657Z,6.72
2018-08-04T00:16:14.186Z,6.80
2018-08-04T00:18:42.662Z,7.20
2018-08-04T00:21:11.209Z,8.03
2018-08-04T00:23:39.705Z,8.48
2018-08-04T00:26:08.188Z,8.90
2018-08-04T00:28:36.653Z,7.05
2018-08-04T00:31:05.186Z,7.85
2018-08-04T00:33:33.660Z,7.42
2018-08-04T00:36:02.171Z,6.83
2018-08-04T00:38:30.696Z,7.45
2018-08-04T00:40:59.200Z,7.53
2018-08-04T00:43:27.679Z,7.40
2018-08-04T00:45:56.543Z,8.10
2018-08-04T00:48:25.071Z,8.17
2018-08-04T00:50:53.740Z,6.55
2018-08-04T00:53:22.232Z,6.83
2018-08-04T00:55:50.768Z,21.77
2018-08-04T00:58:19.455Z,45.08
2018-08-04T01:00:47.982Z,57.70
2018-08-04T01:03:16.496Z,37.58
2018-08-04T01:05:44.992Z,25.35
2018-08-04T01:08:13.550Z,14.85
2018-08-04T01:10:42.017Z,9.60
2018-08-04T01:13:10.529Z,10.25
2018-08-04T01:15:39.076Z,11.95
2018-08-04T01:18:07.749Z,25.92
2018-08-04T01:20:36.387Z,23.32
2018-08-04T01:23:05.022Z,36.03
2018-08-04T01:25:33.772Z,13.83
2018-08-04T01:28:02.279Z,12.15
2018-08-04T01:30:30.746Z,9.88
2018-08-04T01:32:59.504Z,11.95
2018-08-04T01:35:28.305Z,7.40
2018-08-04T01:37:57.160Z,8.53
2018-08-04T01:40:25.716Z,8.70
2018-08-04T01:42:54.282Z,7.37
2018-08-04T01:45:22.875Z,7.40
2018-08-04T01:47:51.424Z,7.20
2018-08-04T01:50:19.914Z,6.33
2018-08-04T01:52:48.780Z,7.20
2018-08-04T01:55:17.230Z,7.05
2018-08-04T01:57:45.734Z,6.55
2018-08-04T02:00:14.251Z,6.58
2018-08-04T02:02:42.764Z,6.50
2018-08-04T02:05:11.492Z,6.83
2018-08-04T02:07:40.230Z,6.87
2018-08-04T02:10:08.775Z,6.92
2018-08-04T02:12:37.268Z,6.65
2018-08-04T02:15:05.959Z,6.70
2018-08-04T02:17:34.597Z,6.78
2018-08-04T02:20:03.058Z,6.92
2018-08-04T02:22:31.560Z,7.35
2018-08-04T02:25:00.268Z,6.35
2018-08-04T02:27:29.081Z,7.15
2018-08-04T02:29:57.763Z,6.75
2018-08-04T02:32:26.281Z,6.65
2018-08-04T02:34:54.953Z,6.80
2018-08-04T02:37:23.652Z,6.60
2018-08-04T02:39:52.324Z,6.90
2018-08-04T02:42:20.896Z,7.12
2018-08-04T02:44:49.650Z,7.33
2018-08-04T02:47:18.224Z,6.83
2018-08-04T02:49:46.696Z,6.60
2018-08-04T02:52:15.277Z,6.83
2018-08-04T02:54:43.854Z,7.78
2018-08-04T02:57:13.265Z,7.25
2018-08-04T02:59:41.732Z,6.92
2018-08-04T03:02:10.445Z,6.53
2018-08-04T03:04:38.973Z,6.60
2018-08-04T03:07:07.477Z,6.83
2018-08-04T03:09:36.111Z,6.85
2018-08-04T03:12:04.697Z,7.15
2018-08-04T03:14:33.155Z,7.70
2018-08-04T03:17:01.727Z,6.70
2018-08-04T03:19:30.644Z,6.80
2018-08-04T03:21:59.379Z,7.37
2018-08-04T03:24:27.884Z,7.15
2018-08-04T03:26:56.353Z,7.00
2018-08-04T03:29:24.858Z,7.42
2018-08-04T03:31:53.325Z,6.97
2018-08-04T03:34:21.805Z,7.40
2018-08-04T03:36:50.315Z,7.33
2018-08-04T03:39:18.783Z,6.40
2018-08-04T03:41:47.236Z,7.10
2018-08-04T03:44:15.707Z,7.20
2018-08-04T03:46:44.175Z,6.90
2018-08-04T03:49:12.663Z,6.87
2018-08-04T03:51:41.192Z,6.95
2018-08-04T03:54:09.691Z,6.50
2018-08-04T03:56:38.279Z,6.92
2018-08-04T03:59:06.740Z,6.80
2018-08-04T04:01:35.225Z,6.62
2018-08-04T04:04:03.740Z,6.60
2018-08-04T04:06:32.363Z,6.97
2018-08-04T04:09:00.809Z,6.97
2018-08-04T04:11:29.299Z,7.45
2018-08-04T04:13:57.768Z,7.20
2018-08-04T04:16:26.230Z,7.15
2018-08-04T04:18:54.787Z,7.55
2018-08-04T04:21:23.246Z,7.47
2018-08-04T04:23:52.342Z,7.60
2018-08-04T04:26:20.814Z,7.20
2018-08-04T04:28:49.288Z,7.67
2018-08-04T04:31:17.813Z,7.83
2018-08-04T04:33:46.376Z,7.22
2018-08-04T04:36:14.925Z,7.20
2018-08-04T04:38:43.596Z,7.33
2018-08-04T04:41:12.061Z,7.10
2018-08-04T04:43:40.537Z,6.95
2018-08-04T04:46:08.993Z,7.40
2018-08-04T04:48:37.602Z,7.42
2018-08-04T04:51:06.229Z,7.37
2018-08-04T04:53:34.728Z,7.05
2018-08-04T04:56:03.230Z,6.87
2018-08-04T04:58:31.712Z,6.90
2018-08-04T05:01:00.321Z,6.05
2018-08-04T05:03:28.899Z,6.92
2018-08-04T05:05:57.430Z,6.55
2018-08-04T05:08:25.899Z,6.87
2018-08-04T05:10:54.368Z,6.83
2018-08-04T05:13:22.930Z,6.97
2018-08-04T05:15:51.378Z,6.90
2018-08-04T05:18:19.869Z,7.20
2018-08-04T05:20:48.348Z,6.80
2018-08-04T05:23:16.845Z,7.00
2018-08-04T05:25:45.349Z,7.03
2018-08-04T05:28:13.881Z,7.50
2018-08-04T05:30:42.384Z,7.95
2018-08-04T05:33:10.868Z,6.92
2018-08-04T05:35:39.575Z,7.55
2018-08-04T05:38:08.048Z,7.70
2018-08-04T05:40:36.615Z,7.05
2018-08-04T05:43:05.108Z,7.33
2018-08-04T05:45:33.750Z,7.25
2018-08-04T05:48:02.191Z,7.75
2018-08-04T05:50:30.663Z,7.53
2018-08-04T05:52:59.192Z,6.90
2018-08-04T05:55:27.670Z,7.53
2018-08-04T05:57:56.218Z,7.00
2018-08-04T06:00:24.667Z,6.90
2018-08-04T06:02:53.157Z,7.67
2018-08-04T06:05:21.667Z,7.28
2018-08-04T06:07:50.136Z,7.92
2018-08-04T06:10:18.638Z,7.47
2018-08-04T06:12:47.260Z,7.30
2018-08-04T06:15:15.731Z,7.22
2018-08-04T06:17:44.276Z,7.72
2018-08-04T06:20:12.751Z,7.55
2018-08-04T06:22:41.253Z,6.92
2018-08-04T06:25:09.751Z,7.22
2018-08-04T06:27:38.209Z,6.87
2018-08-04T06:30:07.188Z,7.33
2018-08-04T06:32:35.653Z,7.95
2018-08-04T06:35:04.156Z,7.65
2018-08-04T06:37:32.645Z,7.67
2018-08-04T06:40:01.143Z,7.78
2018-08-04T06:42:29.596Z,7.65
2018-08-04T06:44:58.114Z,8.20
2018-08-04T06:47:26.687Z,8.85
2018-08-04T06:49:55.180Z,7.10
2018-08-04T06:52:23.683Z,7.60
2018-08-04T06:54:52.144Z,8.30
2018-08-04T06:57:20.645Z,8.25
2018-08-04T06:59:49.173Z,8.45
2018-08-04T07:02:17.668Z,8.08
2018-08-04T07:04:46.233Z,7.42
2018-08-04T07:07:14.676Z,7.90
2018-08-04T07:09:43.144Z,8.25
2018-08-04T07:12:11.692Z,8.15
2018-08-04T07:14:40.200Z,8.08
2018-08-04T07:17:09.545Z,8.10
2018-08-04T07:19:38.000Z,8.20
2018-08-04T07:22:06.493Z,8.28
2018-08-04T07:24:34.970Z,7.92
2018-08-04T07:27:03.501Z,7.95
2018-08-04T07:29:32.016Z,8.43
2018-08-04T07:32:00.599Z,8.33
2018-08-04T07:34:29.091Z,7.97
2018-08-04T07:36:57.733Z,11.10
2018-08-04T07:39:26.270Z,9.53
2018-08-04T07:41:54.828Z,11.35
2018-08-04T07:44:23.302Z,9.93
2018-08-04T07:46:51.886Z,10.35
2018-08-04T07:49:20.397Z,9.35
2018-08-04T07:51:48.924Z,9.03
2018-08-04T07:54:17.376Z,8.38
2018-08-04T07:56:47.514Z,8.60
2018-08-04T07:59:16.704Z,8.58
2018-08-04T08:01:45.205Z,9.50
2018-08-04T08:04:13.688Z,8.83
2018-08-04T08:06:42.200Z,8.73
2018-08-04T08:09:10.674Z,9.20
2018-08-04T08:11:39.193Z,9.20
2018-08-04T08:14:07.711Z,8.98
2018-08-04T08:16:36.274Z,9.40
2018-08-04T08:19:04.776Z,9.88
2018-08-04T08:21:33.332Z,9.30
2018-08-04T08:24:01.857Z,9.80
2018-08-04T08:26:30.329Z,9.48
2018-08-04T08:28:58.819Z,10.15
2018-08-04T08:31:27.348Z,10.15
2018-08-04T08:33:58.965Z,9.95
2018-08-04T08:36:27.663Z,8.95
2018-08-04T08:38:56.283Z,8.55
2018-08-04T08:41:24.788Z,8.80
2018-08-04T08:43:53.346Z,8.68
2018-08-04T08:46:21.846Z,8.58
2018-08-04T08:48:50.358Z,8.10
2018-08-04T08:51:19.192Z,8.63
2018-08-04T08:53:47.760Z,9.00
2018-08-04T08:56:16.156Z,8.15
2018-08-04T08:58:44.636Z,9.00
2018-08-04T09:01:13.212Z,8.98
2018-08-04T09:03:41.695Z,8.85
2018-08-04T09:06:10.191Z,9.15
2018-08-04T09:08:38.773Z,9.00
2018-08-04T09:11:07.225Z,8.78
2018-08-04T09:13:35.712Z,8.88
2018-08-04T09:16:04.213Z,8.30
2018-08-04T09:18:33.372Z,8.50
2018-08-04T09:21:01.920Z,8.78
2018-08-04T09:23:30.401Z,8.58
2018-08-04T09:25:59.100Z,15.48
2018-08-04T09:28:27.612Z,9.88
2018-08-04T09:30:56.149Z,9.25
2018-08-04T09:33:24.612Z,8.90
2018-08-04T09:35:53.125Z,9.03
2018-08-04T09:38:21.644Z,8.88
2018-08-04T09:40:50.116Z,9.55
2018-08-04T09:43:18.583Z,9.60
2018-08-04T09:45:47.072Z,9.13
2018-08-04T09:48:15.592Z,9.63
2018-08-04T09:50:44.083Z,8.58
2018-08-04T09:53:12.583Z,9.65
2018-08-04T09:55:41.072Z,9.60
2018-08-04T09:58:09.553Z,9.18
2018-08-04T10:00:43.408Z,9.83
2018-08-04T10:03:12.101Z,9.28
2018-08-04T10:05:40.556Z,9.33
2018-08-04T10:08:09.044Z,9.30
2018-08-04T10:10:37.508Z,14.10
2018-08-04T10:13:06.052Z,14.63
2018-08-04T10:15:34.533Z,12.75
2018-08-04T10:18:06.834Z,18.23
2018-08-04T10:20:35.393Z,15.45
2018-08-04T10:23:03.935Z,13.60
2018-08-04T10:25:32.400Z,18.07
2018-08-04T10:28:00.896Z,25.43
2018-08-04T10:30:29.380Z,26.73
2018-08-04T10:32:57.961Z,34.35
2018-08-04T10:35:26.413Z,22.07
2018-08-04T10:37:54.906Z,22.77
2018-08-04T10:40:23.387Z,28.45
2018-08-04T10:42:51.864Z,21.00
2018-08-04T10:45:20.487Z,19.98
2018-08-04T10:47:48.952Z,18.57
2018-08-04T10:50:17.520Z,15.88
2018-08-04T10:52:46.003Z,14.13
2018-08-04T10:55:14.449Z,14.33
2018-08-04T10:57:42.928Z,15.72
2018-08-04T11:00:11.487Z,16.55
2018-08-04T11:02:39.976Z,9.65
2018-08-04T11:05:08.649Z,14.87
2018-08-04T11:07:37.157Z,14.33
2018-08-04T11:10:05.803Z,10.35
2018-08-04T11:12:34.338Z,12.25
2018-08-04T11:15:02.756Z,11.63
2018-08-04T11:17:31.255Z,12.47
2018-08-04T11:19:59.725Z,11.15
2018-08-04T11:22:28.184Z,11.40
2018-08-04T11:24:56.725Z,9.73
2018-08-04T11:27:25.509Z,9.15
2018-08-04T11:29:54.036Z,13.32
2018-08-04T11:32:22.550Z,27.62
2018-08-04T11:34:51.032Z,45.88
2018-08-04T11:37:19.540Z,51.85
2018-08-04T11:39:48.017Z,23.22
2018-08-04T11:42:16.472Z,59.58
2018-08-04T11:44:44.968Z,37.78
2018-08-04T11:47:13.492Z,29.02
2018-08-04T11:49:41.985Z,21.15
2018-08-04T11:52:10.648Z,19.70
2018-08-04T11:54:39.144Z,22.00
2018-08-04T11:57:07.607Z,26.62
2018-08-04T11:59:36.108Z,58.60
2018-08-04T12:02:06.592Z,19.45
2018-08-04T12:04:35.120Z,19.07
2018-08-04T12:07:03.709Z,22.65
2018-08-04T12:09:32.186Z,16.50
2018-08-04T12:12:00.691Z,14.47
2018-08-04T12:14:29.183Z,14.80
2018-08-04T12:16:57.645Z,15.78
2018-08-04T12:19:26.157Z,22.13
2018-08-04T12:21:54.727Z,8.28
2018-08-04T12:24:23.240Z,16.73
2018-08-04T12:26:51.716Z,4.97
2018-08-04T12:29:20.190Z,6.37
2018-08-04T12:31:48.716Z,6.72
2018-08-04T12:34:17.259Z,14.95
2018-08-04T12:36:45.755Z,22.10
2018-08-04T12:39:14.442Z,13.70
2018-08-04T12:41:42.892Z,12.60
2018-08-04T12:44:11.413Z,16.90
2018-08-04T12:46:40.500Z,13.72
2018-08-04T12:49:08.993Z,25.12
2018-08-04T12:51:37.483Z,26.70
2018-08-04T12:54:06.004Z,18.07
2018-08-04T12:56:34.481Z,21.65
2018-08-04T12:59:02.996Z,17.25
2018-08-04T13:01:31.610Z,16.10
2018-08-04T13:04:00.107Z,13.58
2018-08-04T13:06:28.557Z,16.55
2018-08-04T13:09:00.844Z,14.87
2018-08-04T13:11:29.359Z,17.15
2018-08-04T13:13:57.874Z,22.55
2018-08-04T13:16:26.361Z,12.60
2018-08-04T13:18:54.866Z,16.62
2018-08-04T13:21:23.356Z,12.68
2018-08-04T13:23:51.840Z,11.38
2018-08-04T13:26:20.423Z,8.23
2018-08-04T13:28:48.929Z,9.18
2018-08-04T13:31:18.308Z,12.93
2018-08-04T13:33:46.796Z,9.40
2018-08-04T13:36:15.370Z,12.00
2018-08-04T13:38:43.870Z,11.68
2018-08-04T13:41:12.352Z,10.35
2018-08-04T13:43:40.858Z,12.63
2018-08-04T13:46:09.372Z,7.28
2018-08-04T13:48:38.004Z,11.85
2018-08-04T13:51:06.764Z,10.10
2018-08-04T13:53:35.224Z,17.80
2018-08-04T13:56:03.755Z,13.38
2018-08-04T13:58:32.660Z,14.98
2018-08-04T14:01:01.148Z,9.68
2018-08-04T14:03:29.608Z,7.45
2018-08-04T14:05:58.196Z,12.03
2018-08-04T14:08:26.722Z,9.90
2018-08-04T14:10:55.271Z,8.25
2018-08-04T14:13:23.736Z,8.10
2018-08-04T14:15:52.259Z,10.72
2018-08-04T14:18:20.758Z,13.68
2018-08-04T14:20:49.274Z,8.30
2018-08-04T14:23:17.785Z,7.10
2018-08-04T14:25:46.290Z,9.98
2018-08-04T14:28:14.764Z,7.40
2018-08-04T14:30:43.296Z,11.55
2018-08-04T14:33:11.783Z,9.88
2018-08-04T14:35:40.306Z,10.25
2018-08-04T14:38:08.832Z,8.30
2018-08-04T14:40:37.367Z,11.10
2018-08-04T14:43:05.865Z,10.45
2018-08-04T14:45:34.408Z,11.05
2018-08-04T14:48:02.911Z,8.28
2018-08-04T14:50:31.400Z,10.93
2018-08-04T14:52:59.886Z,10.75
2018-08-04T14:55:28.355Z,6.60
2018-08-04T14:57:56.973Z,6.08
2018-08-04T15:00:25.603Z,6.42
2018-08-04T15:02:54.123Z,8.88
2018-08-04T15:05:22.600Z,8.03
2018-08-04T15:07:51.136Z,6.72
2018-08-04T15:10:19.627Z,6.12
2018-08-04T15:12:48.088Z,8.80
2018-08-04T15:15:16.892Z,9.13
2018-08-04T15:17:45.352Z,7.35
2018-08-04T15:20:13.887Z,7.03
2018-08-04T15:22:42.782Z,9.73
2018-08-04T15:25:11.266Z,21.90
2018-08-04T15:27:39.815Z,46.88
2018-08-04T15:30:08.341Z,54.95
2018-08-04T15:32:36.852Z,40.85
2018-08-04T15:35:05.416Z,36.68
2018-08-04T15:37:34.132Z,46.68
2018-08-04T15:40:02.664Z,62.70
2018-08-04T15:42:31.188Z,59.88
2018-08-04T15:44:59.765Z,32.53
2018-08-04T15:47:28.531Z,31.23
2018-08-04T15:49:57.048Z,35.58
2018-08-04T15:52:25.536Z,51.58
2018-08-04T15:54:54.012Z,12.10
2018-08-04T15:57:22.561Z,15.83
2018-08-04T15:59:51.044Z,12.65
2018-08-04T16:02:19.549Z,8.38
2018-08-04T16:04:48.087Z,14.28
2018-08-04T16:07:16.588Z,21.15
2018-08-04T16:09:45.063Z,11.75
2018-08-04T16:12:13.590Z,9.05
2018-08-04T16:14:42.279Z,9.15
2018-08-04T16:17:10.889Z,18.57
2018-08-04T16:19:39.352Z,10.35
2018-08-04T16:22:07.820Z,10.03
2018-08-04T16:24:36.344Z,8.03
2018-08-04T16:27:05.542Z,10.30
2018-08-04T16:29:34.072Z,10.18
2018-08-04T16:32:02.756Z,6.78
2018-08-04T16:34:31.419Z,8.80
2018-08-04T16:36:59.903Z,8.60
2018-08-04T16:39:28.416Z,6.83
2018-08-04T16:41:57.235Z,6.53
2018-08-04T16:44:25.689Z,8.00
2018-08-04T16:46:54.248Z,9.10
2018-08-04T16:49:22.862Z,9.98
2018-08-04T16:51:51.637Z,6.78
2018-08-04T16:54:20.187Z,7.15
2018-08-04T16:56:48.766Z,7.20
2018-08-04T16:59:17.282Z,7.33
2018-08-04T17:01:45.741Z,52.98
2018-08-04T17:04:14.531Z,55.28
2018-08-04T17:06:43.378Z,48.02
2018-08-04T17:09:13.044Z,44.80
2018-08-04T17:11:41.932Z,24.60
2018-08-04T17:14:10.448Z,30.48
2018-08-04T17:16:39.269Z,38.80
2018-08-04T17:19:07.796Z,41.02
2018-08-04T17:21:37.236Z,33.67
2018-08-04T17:24:06.101Z,46.85
2018-08-04T17:26:34.640Z,16.02
2018-08-04T17:29:03.245Z,37.65
2018-08-04T17:31:32.101Z,49.53
2018-08-04T17:34:00.945Z,34.05
2018-08-04T17:36:29.427Z,18.15
2018-08-04T17:38:57.931Z,38.28
2018-08-04T17:41:26.464Z,18.12
2018-08-04T17:43:54.969Z,24.92
2018-08-04T17:46:23.476Z,17.50
2018-08-04T17:48:52.359Z,27.00
2018-08-04T17:51:20.852Z,15.65
2018-08-04T17:53:49.321Z,15.95
2018-08-04T17:56:17.872Z,15.80
2018-08-04T17:58:46.632Z,9.53
2018-08-04T18:01:15.184Z,23.95
2018-08-04T18:03:43.703Z,8.93
2018-08-04T18:06:12.188Z,15.40
2018-08-04T18:08:40.700Z,9.60
2018-08-04T18:11:09.180Z,12.28
2018-08-04T18:13:37.689Z,7.03
2018-08-04T18:16:06.233Z,13.60
2018-08-04T18:18:35.111Z,19.75
2018-08-04T18:21:03.702Z,14.03
2018-08-04T18:23:32.212Z,17.17
2018-08-04T18:26:00.764Z,11.53
2018-08-04T18:28:29.324Z,20.92
2018-08-04T18:30:57.849Z,8.80
2018-08-04T18:33:26.371Z,5.05
2018-08-04T18:35:54.871Z,6.42
2018-08-04T18:38:23.492Z,8.10
2018-08-04T18:40:51.970Z,14.30
2018-08-04T18:43:20.489Z,6.28
2018-08-04T18:45:49.074Z,10.18
2018-08-04T18:48:17.634Z,7.28
2018-08-04T18:50:46.340Z,10.58
2018-08-04T18:53:15.077Z,6.28
2018-08-04T18:55:44.598Z,9.13
2018-08-04T18:58:13.272Z,18.98
2018-08-04T19:00:44.104Z,22.55
2018-08-04T19:03:13.263Z,15.18
2018-08-04T19:05:41.901Z,14.83
2018-08-04T19:08:10.395Z,8.30
2018-08-04T19:10:38.927Z,8.60
2018-08-04T19:13:07.955Z,14.50
2018-08-04T19:15:36.445Z,8.50
2018-08-04T19:18:05.584Z,13.60
2018-08-04T19:20:34.198Z,35.85
2018-08-04T19:23:02.907Z,32.38
2018-08-04T19:25:31.404Z,90.35
2018-08-04T19:28:00.224Z,53.90
2018-08-04T19:30:28.678Z,49.80
2018-08-04T19:32:57.286Z,40.90
2018-08-04T19:35:25.909Z,74.92
2018-08-04T19:37:54.432Z,23.55
2018-08-04T19:40:22.963Z,30.85
2018-08-04T19:42:51.646Z,20.97
2018-08-04T19:45:20.323Z,35.63
2018-08-04T19:47:49.040Z,11.68
2018-08-04T19:50:17.730Z,27.55
2018-08-04T19:52:46.307Z,28.47
2018-08-04T19:55:14.802Z,35.92
2018-08-04T19:57:43.701Z,13.65
2018-08-04T20:00:12.344Z,25.37
2018-08-04T20:05:16.065Z,74.47
2018-08-04T20:07:45.454Z,106.15
2018-08-04T20:10:14.054Z,10.93
2018-08-04T20:12:42.606Z,14.75
2018-08-04T20:15:11.151Z,25.92
2018-08-04T20:17:39.657Z,15.83
2018-08-04T20:20:08.174Z,9.88
2018-08-04T20:22:36.643Z,60.12
2018-08-04T20:25:05.740Z,93.27
2018-08-04T20:27:34.480Z,42.48
2018-08-04T20:30:02.997Z,56.13
2018-08-04T20:32:31.492Z,21.93
2018-08-04T20:35:00.089Z,122.95
2018-08-04T20:37:28.605Z,63.10
2018-08-04T20:39:57.213Z,32.58
2018-08-04T20:42:25.754Z,56.20
2018-08-04T20:44:54.314Z,64.17
2018-08-04T20:47:22.791Z,49.58
2018-08-04T20:49:51.826Z,50.45
2018-08-04T20:52:20.337Z,39.27
2018-08-04T20:54:48.843Z,16.77
2018-08-04T20:57:17.456Z,55.30
2018-08-04T20:59:45.949Z,10.65
2018-08-04T21:02:14.666Z,12.65
2018-08-04T21:04:43.125Z,34.13
2018-08-04T21:07:11.700Z,13.90
2018-08-04T21:09:40.301Z,21.05
2018-08-04T21:12:08.884Z,16.48
2018-08-04T21:14:37.370Z,22.27
2018-08-04T21:17:06.124Z,46.75
2018-08-04T21:19:34.686Z,36.10
2018-08-04T21:22:03.422Z,34.50
2018-08-04T21:24:32.100Z,97.55
2018-08-04T21:27:00.851Z,31.65
2018-08-04T21:29:29.573Z,17.05
2018-08-04T21:31:58.085Z,69.03
2018-08-04T21:34:26.629Z,55.00
2018-08-04T21:36:55.177Z,38.98
2018-08-04T21:39:23.663Z,48.78
2018-08-04T21:41:52.632Z,37.73
2018-08-04T21:44:21.111Z,26.27
2018-08-04T21:46:50.628Z,21.87
2018-08-04T21:49:19.540Z,33.65
2018-08-04T21:51:49.545Z,10.82
2018-08-04T21:54:19.922Z,25.68
2018-08-04T21:56:48.029Z,22.27
2018-08-04T21:59:16.757Z,23.12
2018-08-04T22:01:51.139Z,23.50
2018-08-04T22:04:19.921Z,19.00
2018-08-04T22:06:57.009Z,22.70
2018-08-04T22:09:26.132Z,22.75
2018-08-04T22:11:54.785Z,71.22
2018-08-04T22:14:23.282Z,42.65
2018-08-04T22:16:51.768Z,24.30
2018-08-04T22:19:20.320Z,56.55
2018-08-04T22:21:49.434Z,53.48
2018-08-04T22:24:17.927Z,12.37
2018-08-04T22:26:46.490Z,22.37
2018-08-04T22:29:15.041Z,16.60
2018-08-04T22:31:43.532Z,44.73
2018-08-04T22:34:11.994Z,5.75
2018-08-04T22:36:40.500Z,7.55
2018-08-04T22:39:08.963Z,17.48
2018-08-04T22:41:37.633Z,22.98
2018-08-04T22:44:06.145Z,26.23
2018-08-04T22:46:34.648Z,53.30
2018-08-04T22:49:03.212Z,82.92
2018-08-04T22:51:31.756Z,20.20
2018-08-04T22:54:00.240Z,106.12
2018-08-04T22:56:28.760Z,65.15
2018-08-04T22:58:57.234Z,31.40
2018-08-04T23:01:25.736Z,31.80
2018-08-04T23:03:54.341Z,24.57
2018-08-04T23:06:22.805Z,38.58
2018-08-04T23:08:51.339Z,22.10
2018-08-04T23:11:19.980Z,23.20
2018-08-04T23:13:48.484Z,36.98
2018-08-04T23:16:16.955Z,32.60
2018-08-04T23:18:45.467Z,39.70
2018-08-04T23:21:14.084Z,28.15
2018-08-04T23:23:42.633Z,62.25
2018-08-04T23:26:11.124Z,13.48
